Time;durP1;ratioP1;P1;durP2;ratioP2;P2;SDS_P1;SDS_P2;PMS_P1;PMS_P2;Temp;Humidity;BMP_temperature;BMP_pressure;BME280_temperature;BME280_humidity;BME280_pressure;Samples;Min_cycle;Max_cycle;Signal;HPM_P1;HPM_P2
2022/07/18 00:01:29;;;;;;;4.22;1.30;;;;;;;24.12;38.51;100873.00;5076351;28;20028;-69
2022/07/18 00:03:54;;;;;;;6.60;1.60;;;;;;;24.11;38.60;100871.38;5074982;28;20032;-69
2022/07/18 00:06:20;;;;;;;3.45;1.48;;;;;;;24.11;38.69;100864.91;5076105;28;20029;-69
2022/07/18 00:08:45;;;;;;;2.03;1.27;;;;;;;24.07;38.75;100864.81;5076203;28;20094;-69
2022/07/18 00:11:11;;;;;;;4.00;1.20;;;;;;;24.01;38.91;100861.47;5074817;28;20108;-69
2022/07/18 00:13:37;;;;;;;3.90;1.40;;;;;;;24.01;38.86;100863.50;5058284;28;20032;-69
2022/07/18 00:16:02;;;;;;;5.03;1.23;;;;;;;23.98;38.63;100867.09;5058323;28;20044;-69
2022/07/18 00:18:28;;;;;;;3.17;1.27;;;;;;;23.94;38.95;100860.53;5074968;28;20039;-70
2022/07/18 00:20:54;;;;;;;3.45;1.55;;;;;;;23.91;38.74;100861.31;5057987;28;20024;-69
2022/07/18 00:23:19;;;;;;;3.05;1.27;;;;;;;23.91;39.00;100862.13;5104153;28;20123;-69
2022/07/18 00:25:44;;;;;;;2.42;1.30;;;;;;;23.88;38.92;100859.22;5074377;28;20020;-69
2022/07/18 00:28:11;;;;;;;3.58;1.45;;;;;;;23.84;38.83;100859.94;5058324;28;20029;-70
2022/07/18 00:30:38;;;;;;;2.75;1.30;;;;;;;23.82;38.65;100859.53;5058156;28;20055;-69
2022/07/18 00:33:03;;;;;;;4.00;1.40;;;;;;;23.76;39.24;100863.84;5075940;28;20032;-69
2022/07/18 00:35:29;;;;;;;1.77;1.30;;;;;;;23.74;38.85;100857.75;5057698;28;20028;-70
2022/07/18 00:37:54;;;;;;;2.95;1.10;;;;;;;23.74;38.98;100860.56;5057688;28;20047;-70
2022/07/18 00:40:20;;;;;;;1.60;1.20;;;;;;;23.71;38.83;100852.81;5075647;28;20113;-70
2022/07/18 00:42:45;;;;;;;2.47;1.10;;;;;;;23.67;39.05;100857.56;5057910;28;20024;-70
2022/07/18 00:45:11;;;;;;;2.00;1.20;;;;;;;23.64;38.94;100849.81;5074633;28;20032;-70
2022/07/18 00:47:37;;;;;;;3.83;1.40;;;;;;;23.61;38.71;100851.38;5075762;28;20035;-70
2022/07/18 00:50:05;;;;;;;3.65;1.30;;;;;;;23.58;38.91;100859.81;5075580;28;20036;-70
2022/07/18 00:52:30;;;;;;;4.30;1.23;;;;;;;23.55;39.33;100847.22;5074646;28;20522;-69
2022/07/18 00:54:56;;;;;;;4.78;1.52;;;;;;;23.52;39.47;100849.97;5074243;28;20063;-70
2022/07/18 00:57:21;;;;;;;7.90;1.58;;;;;;;23.47;40.27;100838.94;5057494;28;20047;-69
2022/07/18 01:02:31;;;;;;;2.47;1.30;;;;;;;23.37;39.70;100832.69;5074754;28;20035;-69
2022/07/18 01:04:57;;;;;;;2.13;1.20;;;;;;;23.33;39.85;100839.47;5075608;28;20032;-69
2022/07/18 01:07:22;;;;;;;2.13;1.00;;;;;;;23.31;39.63;100839.00;5074351;28;20025;-70
2022/07/18 01:09:48;;;;;;;2.78;1.40;;;;;;;23.24;39.59;100834.03;5055446;28;20718;-70
2022/07/18 01:12:13;;;;;;;5.15;1.60;;;;;;;23.19;39.39;100825.81;5078509;28;20536;-70
2022/07/18 01:14:39;;;;;;;1.85;1.42;;;;;;;23.16;39.38;100827.38;5078082;28;20028;-69
2022/07/18 01:17:12;;;;;;;2.75;1.40;;;;;;;23.12;39.61;100831.31;5078091;28;20060;-70
2022/07/18 01:19:38;;;;;;;1.92;1.35;;;;;;;23.07;39.49;100821.13;5058668;28;20024;-69
2022/07/18 01:22:03;;;;;;;1.40;1.23;;;;;;;23.03;39.41;100822.22;5061384;28;20031;-69
2022/07/18 01:24:29;;;;;;;1.92;1.40;;;;;;;23.01;39.72;100818.94;5044705;28;20025;-70
2022/07/18 01:26:54;;;;;;;1.30;1.20;;;;;;;22.94;39.51;100820.41;5059882;28;20040;-69
2022/07/18 01:29:19;;;;;;;2.95;1.30;;;;;;;22.92;39.82;100813.47;5041145;28;20040;-70
2022/07/18 01:31:45;;;;;;;2.28;1.30;;;;;;;22.88;39.56;100816.22;5059592;28;20234;-69
2022/07/18 01:34:10;;;;;;;2.05;1.02;;;;;;;22.85;39.65;100814.13;5044290;28;20103;-70
2022/07/18 01:36:38;;;;;;;2.05;1.30;;;;;;;22.83;39.79;100810.84;5077689;28;20024;-69
2022/07/18 01:39:03;;;;;;;2.97;1.33;;;;;;;22.74;40.06;100804.59;5076889;28;20581;-69
2022/07/18 01:41:28;;;;;;;2.15;1.30;;;;;;;22.72;40.02;100813.44;5060791;28;20032;-69
2022/07/18 01:43:54;;;;;;;1.75;1.13;;;;;;;22.68;40.21;100811.72;5059609;28;20040;-69
2022/07/18 01:46:19;;;;;;;2.17;1.40;;;;;;;22.64;39.92;100810.81;5078884;28;20032;-69
2022/07/18 01:48:45;;;;;;;3.97;1.10;;;;;;;22.57;40.20;100805.81;5078432;28;20024;-69
2022/07/18 01:51:10;;;;;;;1.75;1.25;;;;;;;22.53;40.16;100807.72;5060619;28;20032;-69
2022/07/18 01:53:38;;;;;;;1.70;1.25;;;;;;;22.49;40.28;100804.00;5078509;28;20028;-69
2022/07/18 01:56:04;;;;;;;2.50;1.48;;;;;;;22.46;40.30;100810.41;5051618;28;20020;-69
2022/07/18 01:58:30;;;;;;;2.30;1.15;;;;;;;22.41;40.35;100802.19;5078317;28;20556;-69
2022/07/18 02:00:55;;;;;;;2.20;1.38;;;;;;;22.37;40.46;100804.94;5077408;28;20127;-69
2022/07/18 02:03:21;;;;;;;2.55;1.20;;;;;;;22.33;40.81;100795.53;5060800;28;20032;-68
2022/07/18 02:05:46;;;;;;;2.25;1.05;;;;;;;22.28;41.10;100798.63;5076973;28;20024;-69
2022/07/18 02:08:12;;;;;;;4.35;1.50;;;;;;;22.23;41.37;100796.09;5043691;28;20115;-69
2022/07/18 02:10:37;;;;;;;2.15;1.20;;;;;;;22.21;40.86;100798.47;5060330;28;20099;-69
2022/07/18 02:13:03;;;;;;;1.73;1.20;;;;;;;22.15;41.09;100795.06;5027499;28;20028;-69
2022/07/18 02:15:28;;;;;;;2.17;1.40;;;;;;;22.07;41.03;100788.41;5076818;28;20094;-69
2022/07/18 02:17:53;;;;;;;3.30;1.30;;;;;;;22.07;41.13;100793.25;5060449;28;20037;-69
2022/07/18 02:20:19;;;;;;;2.35;1.25;;;;;;;21.99;41.04;100791.44;5078319;28;20531;-69
2022/07/18 02:22:44;;;;;;;1.55;1.23;;;;;;;21.97;41.07;100788.13;5075510;28;20059;-69
2022/07/18 02:25:10;;;;;;;1.80;1.40;;;;;;;21.90;40.97;100790.78;5103377;28;20093;-69
2022/07/18 02:27:36;;;;;;;2.28;1.42;;;;;;;21.89;40.83;100789.13;5059785;28;20029;-69
2022/07/18 02:30:02;;;;;;;3.45;1.17;;;;;;;21.84;40.77;100781.75;5078078;28;20040;-69
2022/07/18 02:32:27;;;;;;;2.45;1.23;;;;;;;21.79;40.39;100787.69;5043488;28;20021;-69
2022/07/18 02:34:53;;;;;;;1.75;1.30;;;;;;;21.75;40.92;100786.75;5093674;28;20024;-69
2022/07/18 02:37:19;;;;;;;1.70;1.38;;;;;;;21.71;41.22;100785.84;5077903;28;20032;-69
2022/07/18 02:39:44;;;;;;;1.63;1.27;;;;;;;21.70;41.10;100789.84;5042845;28;20103;-69
2022/07/18 02:42:10;;;;;;;4.30;1.50;;;;;;;21.63;41.21;100788.47;5076535;28;20024;-69
2022/07/18 02:44:35;;;;;;;2.53;1.20;;;;;;;21.59;40.97;100793.22;5043242;28;20082;-69
2022/07/18 02:47:01;;;;;;;1.40;1.20;;;;;;;21.59;40.90;100795.22;5059758;28;20035;-69
2022/07/18 02:49:26;;;;;;;1.98;1.55;;;;;;;21.53;41.00;100789.00;5077513;28;20481;-69
2022/07/18 02:52:00;;;;;;;3.08;1.20;;;;;;;21.52;41.09;100783.72;5076095;28;20024;-69
2022/07/18 02:54:25;;;;;;;2.63;1.48;;;;;;;21.49;41.14;100785.28;5056443;28;20489;-69
2022/07/18 02:56:51;;;;;;;3.60;1.40;;;;;;;21.45;41.30;100781.50;5041876;28;20149;-69
2022/07/18 02:59:17;;;;;;;2.55;1.30;;;;;;;21.42;41.60;100783.09;5087515;28;20032;-69
2022/07/18 03:01:42;;;;;;;2.65;1.58;;;;;;;21.41;41.27;100772.13;5059355;28;20039;-69
2022/07/18 03:04:08;;;;;;;1.63;1.20;;;;;;;21.36;41.49;100769.53;5039500;28;20028;-69
2022/07/18 03:06:33;;;;;;;1.80;1.30;;;;;;;21.34;41.48;100771.88;5042655;28;20430;-69
2022/07/18 03:08:58;;;;;;;2.80;1.40;;;;;;;21.31;41.68;100772.59;5059258;28;20024;-69
2022/07/18 03:11:24;;;;;;;2.38;1.52;;;;;;;21.29;41.42;100764.50;5059105;28;20032;-69
2022/07/18 03:13:49;;;;;;;1.98;1.42;;;;;;;21.26;41.64;100765.25;5077221;28;20044;-69
2022/07/18 03:16:15;;;;;;;3.28;1.25;;;;;;;21.25;41.79;100768.41;5077342;28;20040;-69
2022/07/18 03:18:40;;;;;;;3.35;1.50;;;;;;;21.20;41.76;100770.31;5059046;28;20032;-69
2022/07/18 03:21:06;;;;;;;2.85;1.85;;;;;;;21.17;42.06;100775.84;5059145;28;20021;-69
2022/07/18 03:23:31;;;;;;;2.63;1.33;;;;;;;21.13;42.16;100761.63;5076853;28;20389;-69
2022/07/18 03:25:57;;;;;;;3.25;1.50;;;;;;;21.12;42.57;100759.19;5075398;28;20028;-69
2022/07/18 03:28:22;;;;;;;2.95;1.40;;;;;;;21.06;42.69;100763.44;5059177;28;20074;-69
2022/07/18 03:30:48;;;;;;;3.58;1.52;;;;;;;21.03;42.51;100761.31;5058800;28;20509;-69
2022/07/18 03:33:13;;;;;;;3.53;1.30;;;;;;;21.00;42.33;100762.84;5051836;28;20025;-69
2022/07/18 03:35:38;;;;;;;3.20;1.58;;;;;;;21.01;42.29;100758.06;5024676;28;20090;-68
2022/07/18 03:38:05;;;;;;;1.90;1.40;;;;;;;20.96;42.36;100759.94;5065984;28;20477;-69
2022/07/18 03:40:30;;;;;;;2.25;1.42;;;;;;;20.95;42.15;100754.66;5076524;28;20041;-69
2022/07/18 03:42:56;;;;;;;1.70;1.38;;;;;;;20.93;42.12;100748.56;5058708;28;20037;-69
2022/07/18 03:45:21;;;;;;;2.10;1.30;;;;;;;20.91;42.00;100751.72;5042359;28;20024;-69
2022/07/18 03:47:47;;;;;;;2.92;1.58;;;;;;;20.89;41.96;100754.06;5058712;28;20035;-69
2022/07/18 03:50:12;;;;;;;2.78;1.48;;;;;;;20.87;41.91;100741.53;5058326;28;20028;-69
2022/07/18 03:52:38;;;;;;;3.83;1.45;;;;;;;20.86;41.82;100748.34;5075179;28;20036;-69
2022/07/18 03:55:03;;;;;;;2.40;1.25;;;;;;;20.81;42.06;100743.78;5076151;28;20040;-69
2022/07/18 03:57:29;;;;;;;3.42;1.50;;;;;;;20.78;42.23;100738.81;5038133;28;20037;-69
2022/07/18 03:59:54;;;;;;;1.90;1.45;;;;;;;20.79;42.25;100736.84;5070343;28;20033;-69
2022/07/18 04:02:20;;;;;;;1.65;1.40;;;;;;;20.76;42.27;100735.56;5058617;28;20085;-68
2022/07/18 04:04:45;;;;;;;2.15;1.40;;;;;;;20.72;42.54;100729.78;5058659;28;20044;-69
2022/07/18 04:07:11;;;;;;;2.08;1.40;;;;;;;20.70;42.90;100720.06;5051063;28;20033;-69
2022/07/18 04:09:36;;;;;;;2.60;1.50;;;;;;;20.71;42.70;100722.50;5041537;28;20381;-69
2022/07/18 04:12:02;;;;;;;2.17;1.45;;;;;;;20.68;43.13;100726.06;5058522;28;20029;-69
2022/07/18 04:14:27;;;;;;;2.05;1.38;;;;;;;20.68;43.14;100722.41;5041609;28;20085;-69
2022/07/18 04:16:53;;;;;;;2.78;1.60;;;;;;;20.64;43.14;100710.19;5074877;28;20039;-69
2022/07/18 04:19:18;;;;;;;2.22;1.42;;;;;;;20.64;43.25;100711.00;5057866;28;20031;-69
2022/07/18 04:21:44;;;;;;;2.17;1.55;;;;;;;20.63;43.44;100715.00;5058067;28;20017;-69
2022/07/18 04:24:10;;;;;;;3.42;1.90;;;;;;;20.64;43.20;100713.00;5058334;28;20038;-69
2022/07/18 04:26:35;;;;;;;3.35;1.60;;;;;;;20.63;43.23;100709.38;5083682;28;20116;-69
2022/07/18 04:29:01;;;;;;;1.90;1.42;;;;;;;20.62;43.17;100709.75;5038981;28;20633;-69
2022/07/18 04:31:27;;;;;;;2.50;1.40;;;;;;;20.61;43.12;100711.72;5058289;28;20035;-69
2022/07/18 04:33:52;;;;;;;5.13;1.60;;;;;;;20.60;43.78;100710.09;5074714;28;20021;-69
2022/07/18 04:36:18;;;;;;;2.40;1.83;;;;;;;20.58;43.81;100706.78;5074848;28;20032;-69
2022/07/18 04:38:44;;;;;;;2.55;1.83;;;;;;;20.61;43.40;100706.06;5074903;28;20031;-69
2022/07/18 04:41:09;;;;;;;2.50;1.63;;;;;;;20.59;44.22;100719.75;5057484;28;20025;-69
2022/07/18 04:43:35;;;;;;;4.47;1.70;;;;;;;20.61;43.55;100713.72;5041374;28;20028;-69
2022/07/18 04:46:00;;;;;;;2.85;1.50;;;;;;;20.60;43.88;100712.09;5072243;28;20033;-69
2022/07/18 04:48:26;;;;;;;2.20;1.63;;;;;;;20.61;43.96;100714.53;5078539;28;20099;-69
2022/07/18 04:50:51;;;;;;;5.05;1.58;;;;;;;20.61;43.93;100710.91;5045110;28;20025;-69
2022/07/18 04:53:17;;;;;;;2.85;1.80;;;;;;;20.62;44.19;100707.75;5044984;28;20021;-69
2022/07/18 04:55:42;;;;;;;4.20;1.52;;;;;;;20.59;44.18;100705.63;5061439;28;20027;-69
2022/07/18 04:58:08;;;;;;;2.15;1.30;;;;;;;20.59;44.21;100708.44;5061156;28;20052;-69
2022/07/18 05:00:33;;;;;;;2.90;1.60;;;;;;;20.60;44.74;100712.91;5054065;28;20036;-68
2022/07/18 05:02:59;;;;;;;3.38;1.92;;;;;;;20.62;44.96;100710.56;5061736;28;20043;-68
2022/07/18 05:05:26;;;;;;;3.63;1.85;;;;;;;20.67;44.77;100707.50;5078228;28;20032;-69
2022/07/18 05:07:51;;;;;;;2.95;1.70;;;;;;;20.70;44.05;100706.78;5061541;28;20035;-69
2022/07/18 05:10:18;;;;;;;3.08;1.80;;;;;;;20.73;44.25;100708.88;5044703;28;20028;-69
2022/07/18 05:12:47;;;;;;;2.50;1.60;;;;;;;20.78;44.48;100710.59;5061473;28;20025;-69
2022/07/18 05:15:14;;;;;;;4.55;1.92;;;;;;;20.85;44.13;100713.66;5077823;28;20040;-69
2022/07/18 05:17:39;;;;;;;2.15;1.55;;;;;;;20.94;43.95;100713.47;5078073;28;20158;-69
2022/07/18 05:20:06;;;;;;;1.70;1.40;;;;;;;21.00;44.60;100720.50;5028266;28;20029;-69
2022/07/18 05:22:32;;;;;;;2.20;1.50;;;;;;;21.07;44.22;100720.72;5028219;28;20074;-69
2022/07/18 05:24:58;;;;;;;5.35;1.67;;;;;;;21.15;44.88;100725.41;5059914;28;20473;-69
2022/07/18 05:27:23;;;;;;;5.18;1.85;;;;;;;21.24;44.15;100722.41;5078026;28;20047;-69
2022/07/18 05:29:49;;;;;;;4.80;1.58;;;;;;;21.34;42.94;100723.88;5061007;28;20021;-69
2022/07/18 05:32:14;;;;;;;3.08;1.58;;;;;;;21.44;43.11;100731.03;5061165;28;20033;-69
2022/07/18 05:34:40;;;;;;;2.67;1.65;;;;;;;21.54;43.73;100727.69;5111696;28;20024;-69
2022/07/18 05:37:05;;;;;;;4.00;1.63;;;;;;;21.64;42.67;100732.78;5078810;28;20538;-69
2022/07/18 05:39:31;;;;;;;2.50;1.50;;;;;;;21.76;42.38;100724.22;5060874;28;20021;-69
2022/07/18 05:41:56;;;;;;;1.60;1.40;;;;;;;21.88;41.91;100714.81;5026327;28;20386;-69
2022/07/18 05:44:22;;;;;;;4.70;1.30;;;;;;;22.02;41.50;100722.84;5057815;28;20037;-69
2022/07/18 05:46:48;;;;;;;3.72;1.75;;;;;;;22.16;41.48;100725.19;5070450;28;20476;-69
2022/07/18 05:49:14;;;;;;;2.75;1.60;;;;;;;22.27;41.19;100712.13;5077280;28;20051;-69
2022/07/18 05:51:40;;;;;;;3.63;1.50;;;;;;;22.41;41.34;100714.47;5077296;28;20033;-69
2022/07/18 05:54:05;;;;;;;3.75;1.73;;;;;;;22.55;40.97;100716.81;5060616;28;20020;-69
2022/07/18 05:56:31;;;;;;;2.33;1.33;;;;;;;22.67;40.88;100706.16;5053873;28;20115;-69
2022/07/18 05:58:57;;;;;;;3.92;1.63;;;;;;;22.82;40.70;100712.13;5026224;28;20534;-69
2022/07/18 06:01:22;;;;;;;2.13;1.48;;;;;;;22.96;40.64;100715.28;5060853;28;20021;-69
2022/07/18 06:03:48;;;;;;;2.22;1.45;;;;;;;23.11;40.47;100707.88;5060603;28;20063;-70
2022/07/18 06:06:14;;;;;;;1.50;1.38;;;;;;;23.25;40.14;100708.16;5078395;28;20029;-70
2022/07/18 06:08:40;;;;;;;2.05;1.27;;;;;;;23.43;40.36;100700.00;5086971;28;20027;-70
2022/07/18 06:11:07;;;;;;;2.35;1.40;;;;;;;23.57;39.92;100705.94;5078017;28;20477;-70
2022/07/18 06:13:34;;;;;;;2.55;1.63;;;;;;;23.74;39.87;100700.97;5060304;28;20036;-70
2022/07/18 06:15:59;;;;;;;2.85;1.50;;;;;;;23.91;40.04;100705.31;5060532;28;20044;-70
2022/07/18 06:18:25;;;;;;;2.58;1.25;;;;;;;24.05;39.87;100697.84;5078261;28;20032;-73
2022/07/18 06:20:50;;;;;;;3.30;1.65;;;;;;;24.21;39.88;100700.50;5077193;28;20028;-64
2022/07/18 06:23:16;;;;;;;2.97;1.63;;;;;;;24.38;39.86;100693.47;5078015;28;20039;-68
2022/07/18 06:25:41;;;;;;;2.78;1.35;;;;;;;24.55;39.80;100697.78;5043390;28;20418;-68
2022/07/18 06:28:07;;;;;;;2.55;1.60;;;;;;;24.73;39.88;100706.50;5027152;28;20021;-72
2022/07/18 06:30:32;;;;;;;6.65;1.70;;;;;;;24.86;39.54;100704.25;5076746;28;20029;-63
2022/07/18 06:32:58;;;;;;;2.13;1.50;;;;;;;25.06;39.15;100699.22;5076833;28;20028;-63
2022/07/18 06:35:23;;;;;;;5.38;1.42;;;;;;;25.17;39.46;100706.66;5076750;28;20665;-64
2022/07/18 06:37:49;;;;;;;3.42;1.60;;;;;;;25.33;38.71;100699.94;5076560;28;20025;-64
2022/07/18 06:40:14;;;;;;;5.00;1.63;;;;;;;25.50;38.88;100704.97;5059743;28;20028;-64
2022/07/18 06:42:40;;;;;;;2.28;1.38;;;;;;;25.64;38.37;100704.31;5056943;28;20485;-64
2022/07/18 06:45:06;;;;;;;5.85;1.52;;;;;;;25.81;38.47;100699.97;5059915;28;20436;-63
2022/07/18 06:47:31;;;;;;;2.42;1.65;;;;;;;25.94;38.39;100704.19;5091860;28;20028;-64
2022/07/18 06:49:57;;;;;;;2.80;1.50;;;;;;;26.09;38.11;100710.78;5077343;28;20546;-63
2022/07/18 06:52:22;;;;;;;2.17;1.40;;;;;;;26.24;38.11;100717.38;5056156;28;20021;-64
2022/07/18 06:54:48;;;;;;;4.95;1.45;;;;;;;26.37;37.84;100710.16;5072544;28;20426;-63
2022/07/18 06:57:13;;;;;;;3.80;1.52;;;;;;;26.54;37.78;100713.53;5059353;28;20036;-64
2022/07/18 06:59:39;;;;;;;5.38;1.52;;;;;;;26.66;37.37;100714.03;5059598;28;20044;-64
2022/07/18 07:02:04;;;;;;;7.18;1.80;;;;;;;26.81;37.36;100712.06;5059258;28;20028;-64
2022/07/18 07:04:30;;;;;;;7.20;1.70;;;;;;;26.95;37.37;100712.09;5076157;28;20507;-64
2022/07/18 07:06:56;;;;;;;3.50;1.30;;;;;;;27.11;37.14;100722.34;5057775;28;20029;-64
2022/07/18 07:09:21;;;;;;;4.53;1.60;;;;;;;27.28;36.89;100712.25;5037489;28;20025;-64
2022/07/18 07:11:46;;;;;;;4.68;1.50;;;;;;;27.46;36.78;100717.97;5059052;28;20020;-64
2022/07/18 07:14:12;;;;;;;5.32;1.63;;;;;;;27.57;37.20;100719.63;5075911;28;20028;-65
2022/07/18 07:16:37;;;;;;;6.80;1.70;;;;;;;27.76;36.51;100717.59;5051900;28;20371;-64
2022/07/18 07:19:03;;;;;;;6.60;1.65;;;;;;;27.88;36.40;100713.56;5075573;28;20036;-64
2022/07/18 07:21:29;;;;;;;3.63;1.33;;;;;;;28.05;36.45;100707.00;5052352;28;20021;-65
2022/07/18 07:23:54;;;;;;;3.20;1.50;;;;;;;28.22;36.28;100700.47;5019211;28;20029;-65
2022/07/18 07:26:19;;;;;;;2.05;1.25;;;;;;;28.39;36.52;100700.84;5058729;28;20094;-65
2022/07/18 07:28:45;;;;;;;5.15;1.60;;;;;;;28.59;35.62;100706.94;5059015;28;20484;-64
2022/07/18 07:31:11;;;;;;;3.53;1.58;;;;;;;28.79;35.20;100705.22;5042104;28;20036;-64
2022/07/18 07:33:37;;;;;;;4.75;1.48;;;;;;;28.99;35.14;100701.88;5042421;28;20021;-64
2022/07/18 07:36:03;;;;;;;5.30;1.50;;;;;;;29.18;34.84;100695.69;5055362;28;20040;-64
2022/07/18 07:38:29;;;;;;;5.68;1.50;;;;;;;29.38;34.51;100699.63;5038755;28;20111;-65
2022/07/18 07:40:55;;;;;;;4.05;1.30;;;;;;;29.50;34.31;100703.22;5058251;28;20063;-64
2022/07/18 07:43:20;;;;;;;5.25;1.50;;;;;;;29.68;33.91;100711.72;5058748;28;20256;-64
2022/07/18 07:45:48;;;;;;;3.45;1.25;;;;;;;29.81;33.93;100704.22;5058641;28;20024;-65
2022/07/18 07:48:14;;;;;;;2.10;1.40;;;;;;;29.96;33.72;100711.47;5042137;28;20131;-65
2022/07/18 07:50:39;;;;;;;3.63;1.70;;;;;;;30.11;34.00;100711.34;5075093;28;20033;-64
2022/07/18 07:53:05;;;;;;;3.45;1.45;;;;;;;30.23;33.63;100710.88;5058527;28;20039;-64
2022/07/18 07:55:31;;;;;;;6.88;1.60;;;;;;;30.37;33.90;100713.56;5074929;28;20043;-65
2022/07/18 07:57:56;;;;;;;5.13;1.25;;;;;;;30.51;33.58;100709.75;5074899;28;20048;-65
2022/07/18 08:00:22;;;;;;;3.90;1.77;;;;;;;30.68;33.04;100710.78;5075178;28;20032;-65
2022/07/18 08:02:52;;;;;;;7.18;1.38;;;;;;;30.87;32.66;100715.06;5058556;28;20039;-64
2022/07/18 08:05:18;;;;;;;4.95;1.38;;;;;;;31.00;32.48;100715.31;5058071;28;20047;-65
2022/07/18 08:07:43;;;;;;;3.58;1.33;;;;;;;31.07;32.57;100707.44;5058338;28;20028;-65
2022/07/18 08:10:09;;;;;;;4.75;1.60;;;;;;;31.22;32.32;100693.69;5058213;28;20028;-65
2022/07/18 08:12:34;;;;;;;3.17;1.70;;;;;;;31.40;31.75;100696.34;5074905;28;20028;-65
2022/07/18 08:15:00;;;;;;;3.55;1.30;;;;;;;31.55;31.67;100700.59;5056955;28;20044;-65
2022/07/18 08:17:25;;;;;;;4.50;1.30;;;;;;;31.66;31.58;100694.69;5021844;28;20029;-64
2022/07/18 08:19:50;;;;;;;4.60;1.60;;;;;;;31.76;31.72;100696.56;5057512;28;20039;-65
2022/07/18 08:22:17;;;;;;;5.28;1.30;;;;;;;31.89;31.30;100696.75;5058179;28;20025;-65
2022/07/18 08:24:43;;;;;;;2.08;1.50;;;;;;;32.05;30.43;100693.22;5074682;28;20087;-65
2022/07/18 08:27:09;;;;;;;2.72;1.20;;;;;;;32.12;30.10;100687.34;5074961;28;20062;-65
2022/07/18 08:29:34;;;;;;;3.13;1.38;;;;;;;32.24;30.23;100688.78;5057895;28;20497;-65
2022/07/18 08:32:00;;;;;;;3.60;1.50;;;;;;;32.32;29.42;100687.41;5058106;28;20053;-65
2022/07/18 08:34:25;;;;;;;2.13;1.73;;;;;;;32.42;29.50;100682.69;5054830;28;20021;-65
2022/07/18 08:36:51;;;;;;;4.50;1.83;;;;;;;32.51;29.52;100676.38;5057823;28;20040;-64
2022/07/18 08:39:16;;;;;;;1.58;1.40;;;;;;;32.59;29.33;100681.53;5041372;28;20477;-65
2022/07/18 08:41:43;;;;;;;6.05;1.60;;;;;;;32.68;29.89;100664.53;5057998;28;20029;-65
2022/07/18 08:44:08;;;;;;;5.70;1.40;;;;;;;32.78;28.48;100677.03;5037876;28;20437;-65
2022/07/18 08:46:34;;;;;;;5.82;1.42;;;;;;;32.90;28.45;100672.66;5071749;28;20063;-65
2022/07/18 08:48:59;;;;;;;5.22;1.67;;;;;;;32.97;29.00;100678.28;5024698;28;20388;-65
2022/07/18 08:51:25;;;;;;;5.40;1.50;;;;;;;33.08;28.83;100678.88;5037776;28;20517;-65
2022/07/18 08:53:51;;;;;;;5.57;1.70;;;;;;;33.21;28.38;100678.16;5056810;28;20033;-65
2022/07/18 08:56:17;;;;;;;3.17;1.48;;;;;;;33.27;28.40;100670.66;5057933;28;20032;-65
2022/07/18 08:58:43;;;;;;;5.55;1.50;;;;;;;33.42;28.31;100674.78;5073040;28;20462;-65
2022/07/18 09:01:08;;;;;;;3.47;1.40;;;;;;;33.58;27.57;100676.91;5030089;28;20071;-65
2022/07/18 09:03:34;;;;;;;3.05;1.45;;;;;;;33.71;27.93;100671.22;5074204;28;20115;-65
2022/07/18 09:06:04;;;;;;;3.53;1.40;;;;;;;33.82;28.31;100680.41;5056401;28;20029;-65
2022/07/18 09:08:30;;;;;;;3.13;1.48;;;;;;;33.92;27.56;100676.44;5074631;28;20029;-65
2022/07/18 09:10:57;;;;;;;5.28;1.70;;;;;;;34.03;27.29;100674.09;5057573;28;20044;-65
2022/07/18 09:13:24;;;;;;;3.70;1.50;;;;;;;34.11;27.65;100682.59;5057569;28;20503;-65
2022/07/18 09:16:10;;;;;;;5.18;1.25;;;;;;;34.26;26.08;100670.19;5057788;28;20037;-65
2022/07/18 09:18:44;;;;;;;2.80;1.35;;;;;;;34.37;26.35;100675.66;5035107;28;20052;-65
2022/07/18 09:21:15;;;;;;;5.75;1.50;;;;;;;34.47;25.19;100671.66;5058132;28;20025;-65
2022/07/18 09:23:42;;;;;;;4.97;1.45;;;;;;;34.56;25.69;100673.13;5074244;28;20092;-65
2022/07/18 09:26:10;;;;;;;4.07;1.48;;;;;;;34.70;26.32;100676.38;5040721;28;20028;-64
2022/07/18 09:28:46;;;;;;;3.30;1.20;;;;;;;34.80;26.01;100677.34;5041157;28;20489;-65
2022/07/18 09:31:21;;;;;;;4.07;1.30;;;;;;;34.86;25.53;100678.38;5075503;28;20032;-64
2022/07/18 09:33:57;;;;;;;2.38;1.30;;;;;;;34.91;25.18;100680.72;5061258;28;20027;-65
2022/07/18 09:36:23;;;;;;;7.90;1.48;;;;;;;35.06;25.12;100672.44;5061601;28;20032;-65
2022/07/18 09:38:48;;;;;;;3.50;1.10;;;;;;;35.10;25.22;100675.22;5060918;28;20033;-64
2022/07/18 09:41:14;;;;;;;4.38;1.30;;;;;;;35.15;25.59;100665.97;5060916;28;20107;-65
2022/07/18 09:43:40;;;;;;;3.13;1.17;;;;;;;35.24;24.88;100671.88;5061042;28;20029;-65
2022/07/18 09:46:06;;;;;;;5.00;1.30;;;;;;;35.35;24.19;100677.31;5060760;28;20073;-64
2022/07/18 09:48:32;;;;;;;5.00;1.20;;;;;;;35.44;23.09;100665.06;5060726;28;20100;-65
2022/07/18 09:50:58;;;;;;;3.85;1.20;;;;;;;35.49;23.42;100668.16;5060855;28;20039;-65
2022/07/18 09:53:34;;;;;;;3.78;1.15;;;;;;;35.57;23.14;100671.66;5078575;28;20037;-65
2022/07/18 09:56:01;;;;;;;2.33;1.10;;;;;;;35.65;23.29;100661.50;5060456;28;20036;-65
2022/07/18 09:58:29;;;;;;;4.65;1.05;;;;;;;35.79;23.30;100663.88;5026823;28;20044;-64
2022/07/18 10:00:56;;;;;;;2.55;1.20;;;;;;;35.84;23.26;100659.59;5048293;28;20028;-65
2022/07/18 10:03:23;;;;;;;1.73;0.90;;;;;;;35.91;23.23;100659.38;5044931;28;20048;-65
2022/07/18 10:05:50;;;;;;;3.95;1.27;;;;;;;36.09;23.04;100652.97;5060720;28;20032;-65
2022/07/18 10:08:20;;;;;;;2.35;1.00;;;;;;;36.17;23.78;100657.22;5077092;28;20028;-65
2022/07/18 10:10:48;;;;;;;3.22;1.15;;;;;;;36.35;23.66;100658.66;5060454;28;20037;-65
2022/07/18 10:13:14;;;;;;;6.43;1.17;;;;;;;36.51;23.41;100655.56;5025939;28;20032;-65
2022/07/18 10:15:41;;;;;;;3.67;1.00;;;;;;;36.61;23.49;100648.59;5078344;28;20036;-71
2022/07/18 10:18:10;;;;;;;2.85;1.13;;;;;;;36.80;22.69;100637.94;5041120;28;20040;-72
2022/07/18 10:20:35;;;;;;;2.65;0.80;;;;;;;36.91;22.00;100641.22;5077127;28;20094;-71
2022/07/18 10:23:22;;;;;;;3.63;0.70;;;;;;;37.05;21.98;100625.41;5076858;28;20032;-71
2022/07/18 10:26:16;;;;;;;3.65;1.23;;;;;;;37.22;21.80;100634.66;5076020;28;20051;-71
2022/07/18 10:29:00;;;;;;;3.90;1.15;;;;;;;37.33;21.85;100631.28;5074456;28;20067;-71
2022/07/18 10:31:28;;;;;;;4.18;1.10;;;;;;;37.41;21.78;100628.91;5076176;28;20073;-71
2022/07/18 10:34:07;;;;;;;4.45;1.13;;;;;;;37.51;21.56;100627.69;5077655;28;20040;-71
2022/07/18 10:36:36;;;;;;;1.83;0.90;;;;;;;37.65;21.17;100627.09;5075899;28;20063;-71
2022/07/18 10:39:14;;;;;;;2.20;0.80;;;;;;;37.77;20.70;100625.34;5076627;28;20044;-71
2022/07/18 10:41:42;;;;;;;4.35;0.85;;;;;;;37.77;19.60;100617.44;5077388;28;20396;-72
2022/07/18 10:44:23;;;;;;;3.95;0.80;;;;;;;37.84;19.29;100618.44;5074485;28;20028;-71
2022/07/18 10:47:17;;;;;;;2.42;0.70;;;;;;;37.87;19.80;100615.38;5093009;28;20125;-72
2022/07/18 10:49:56;;;;;;;2.13;0.77;;;;;;;37.94;18.92;100605.53;5073502;28;21506;-72
2022/07/18 10:52:25;;;;;;;4.00;0.70;;;;;;;37.98;18.98;100604.13;5092880;28;20040;-72
2022/07/18 10:55:02;;;;;;;3.28;0.65;;;;;;;37.95;19.32;100602.19;5076977;28;20029;-72
2022/07/18 10:57:35;;;;;;;0.82;0.70;;;;;;;37.95;19.57;100602.19;5070463;28;20073;-71
2022/07/18 11:00:11;;;;;;;1.50;0.98;;;;;;;37.97;19.54;100602.53;5076003;28;20029;-72
2022/07/18 11:02:47;;;;;;;1.88;0.80;;;;;;;38.06;19.62;100610.41;5074922;28;20044;-71
2022/07/18 11:05:24;;;;;;;5.55;0.70;;;;;;;38.15;19.84;100598.03;5074905;28;20037;-71
2022/07/18 11:08:02;;;;;;;4.38;0.85;;;;;;;38.20;18.91;100600.28;5077039;28;20090;-71
2022/07/18 11:10:50;;;;;;;3.15;0.80;;;;;;;38.31;18.20;100609.28;5076728;28;20028;-71
2022/07/18 11:13:24;;;;;;;5.82;0.75;;;;;;;38.36;17.72;100599.91;5073606;28;20029;-71
2022/07/18 11:16:09;;;;;;;3.55;0.80;;;;;;;38.40;18.16;100594.75;5077300;28;20024;-71
2022/07/18 11:18:44;;;;;;;6.65;0.68;;;;;;;38.56;18.49;100595.72;5075677;28;20485;-71
2022/07/18 11:21:32;;;;;;;2.92;0.50;;;;;;;38.67;17.80;100593.94;5076607;28;20024;-71
2022/07/18 11:24:08;;;;;;;2.45;0.57;;;;;;;38.75;18.13;100591.47;5075495;28;20119;-71
2022/07/18 11:26:34;;;;;;;1.63;0.70;;;;;;;38.83;17.72;100595.63;5072918;28;20082;-71